createdAt,value
2022-11-28T06:25:53.827Z,0.33
2022-11-28T06:28:21.392Z,0.34
2022-11-28T06:30:49.042Z,0.37
2022-11-28T06:33:16.890Z,0.43
2022-11-28T06:35:44.782Z,0.48
2022-11-28T06:38:14.398Z,0.50
2022-11-28T06:40:42.602Z,0.52
2022-11-28T06:43:11.638Z,0.51
2022-11-28T06:45:39.687Z,0.54
2022-11-28T06:48:07.413Z,0.57
2022-11-28T06:50:35.005Z,0.58
2022-11-28T06:53:02.563Z,0.60
2022-11-28T06:55:30.659Z,0.63
2022-11-28T06:57:58.294Z,0.67
2022-11-28T07:00:27.342Z,0.67
2022-11-28T07:02:55.242Z,0.71
2022-11-28T07:05:23.168Z,0.71
2022-11-28T07:07:54.470Z,0.78
2022-11-28T07:10:22.804Z,0.83
2022-11-28T07:12:54.002Z,0.84
2022-11-28T07:15:22.219Z,0.90
2022-11-28T07:17:51.840Z,0.96
2022-11-28T07:20:19.813Z,0.97
2022-11-28T07:22:48.594Z,0.94
2022-11-28T07:25:16.668Z,1.05
2022-11-28T07:27:44.388Z,1.09
2022-11-28T07:30:13.659Z,1.10
2022-11-28T07:32:41.395Z,1.10
2022-11-28T07:35:10.654Z,1.09
2022-11-28T07:37:38.245Z,1.15
2022-11-28T07:40:07.269Z,1.20
2022-11-28T07:42:35.111Z,1.14
2022-11-28T07:45:02.790Z,1.19
2022-11-28T07:47:30.943Z,1.27
2022-11-28T07:49:58.463Z,1.28
2022-11-28T07:52:27.483Z,1.33
2022-11-28T07:54:55.376Z,1.33
2022-11-28T07:57:22.944Z,1.30
2022-11-28T07:59:51.727Z,1.29
2022-11-28T08:02:20.026Z,1.37
2022-11-28T08:04:51.546Z,1.37
2022-11-28T08:07:21.983Z,1.38
2022-11-28T08:09:51.074Z,1.41
2022-11-28T08:12:18.651Z,1.50
2022-11-28T08:14:46.563Z,1.55
2022-11-28T08:17:14.438Z,1.58
2022-11-28T08:19:42.308Z,1.65
2022-11-28T08:22:09.996Z,1.74
2022-11-28T08:24:38.034Z,1.72
2022-11-28T08:27:07.119Z,1.74
2022-11-28T08:29:35.047Z,1.82
2022-11-28T08:32:02.641Z,1.86
2022-11-28T08:34:30.527Z,1.83
2022-11-28T08:36:58.215Z,1.81
2022-11-28T08:39:26.002Z,1.78
2022-11-28T08:41:54.243Z,1.74
2022-11-28T08:44:23.591Z,1.79
2022-11-28T08:46:51.244Z,1.76
2022-11-28T08:49:18.908Z,1.80
2022-11-28T08:51:46.737Z,1.68
2022-11-28T08:54:14.923Z,1.68
2022-11-28T08:56:43.773Z,1.76
2022-11-28T08:59:11.585Z,1.72
2022-11-28T09:01:40.623Z,1.74
2022-11-28T09:04:29.430Z,1.81
2022-11-28T09:06:57.288Z,1.72
2022-11-28T09:09:26.312Z,1.68
2022-11-28T09:11:56.510Z,1.76
2022-11-28T09:14:26.682Z,1.81
2022-11-28T09:16:55.802Z,1.79
2022-11-28T09:19:24.251Z,1.88
2022-11-28T09:21:57.529Z,1.83
2022-11-28T09:24:25.668Z,1.91
2022-11-28T09:26:53.235Z,1.86
2022-11-28T09:29:20.798Z,1.81
2022-11-28T09:31:48.499Z,1.80
2022-11-28T09:34:17.553Z,1.85
2022-11-28T09:36:45.206Z,1.77
2022-11-28T09:39:12.943Z,1.81
2022-11-28T09:42:04.383Z,1.84
2022-11-28T09:44:42.119Z,1.96
2022-11-28T09:47:18.128Z,1.99
2022-11-28T09:49:52.618Z,2.00
2022-11-28T09:52:32.412Z,2.17
2022-11-28T09:55:14.473Z,2.13
2022-11-28T09:57:43.647Z,2.33
2022-11-28T10:00:15.043Z,2.32
2022-11-28T11:27:19.465Z,2.22
2022-11-28T11:29:51.230Z,2.28
2022-11-28T11:32:21.439Z,2.29
2022-11-28T11:34:50.582Z,2.32
2022-11-28T11:37:31.620Z,2.25
2022-11-28T11:40:01.058Z,2.28
2022-11-28T11:42:33.099Z,2.32
2022-11-28T11:45:24.540Z,2.26
2022-11-28T11:47:52.469Z,2.22
2022-11-28T11:50:22.455Z,2.27
2022-11-28T11:53:06.707Z,2.29
2022-11-28T11:55:43.563Z,2.37
2022-11-28T11:58:18.559Z,2.36
2022-11-28T12:00:46.995Z,2.33
2022-11-28T12:03:25.880Z,2.37
2022-11-28T12:06:14.276Z,2.35
2022-11-28T12:08:47.912Z,2.37
2022-11-28T12:11:42.489Z,2.40
2022-11-28T12:14:27.055Z,2.42
2022-11-28T12:20:08.738Z,2.50
2022-11-28T12:22:48.861Z,2.56
2022-11-28T12:25:26.008Z,2.58
2022-11-28T12:28:01.384Z,2.63
2022-11-28T12:30:45.446Z,2.63
2022-11-28T12:33:33.120Z,2.70
2022-11-28T12:36:10.799Z,2.68
2022-11-28T12:38:55.468Z,2.69
2022-11-28T12:55:47.204Z,2.79
2022-11-28T12:58:21.915Z,2.80
2022-11-28T13:00:57.954Z,2.77
2022-11-28T13:03:38.914Z,2.81
2022-11-28T13:06:22.606Z,2.81
2022-11-28T13:09:09.459Z,2.79
2022-11-28T13:11:56.326Z,2.81
2022-11-28T13:14:34.340Z,2.80
2022-11-28T13:17:15.565Z,2.82
2022-11-28T13:19:52.161Z,2.74
2022-11-28T13:22:24.091Z,2.76
2022-11-28T13:25:01.950Z,2.61
2022-11-28T13:27:41.906Z,2.73
2022-11-28T13:30:19.644Z,2.74
2022-11-28T13:32:56.026Z,2.71
2022-11-28T13:35:24.728Z,2.69
2022-11-28T13:40:51.922Z,2.65
2022-11-28T13:43:27.713Z,2.63
2022-11-28T13:45:56.206Z,2.60
2022-11-28T13:49:13.699Z,2.62
2022-11-28T13:51:42.405Z,2.64
2022-11-28T13:54:42.465Z,2.64
2022-11-28T13:57:21.549Z,2.64
2022-11-28T13:59:57.766Z,2.63
2022-11-28T14:02:36.207Z,2.53
2022-11-28T14:05:14.888Z,2.56
2022-11-28T14:07:49.996Z,2.60
2022-11-28T14:10:40.580Z,2.59
2022-11-28T14:13:49.639Z,2.59
2022-11-28T14:16:33.958Z,2.57
2022-11-28T14:19:14.503Z,2.56
2022-11-28T14:21:56.639Z,2.52
2022-11-28T14:24:37.142Z,2.55
2022-11-28T14:27:07.048Z,2.52
2022-11-28T14:29:39.148Z,2.49
2022-11-28T14:32:32.392Z,2.50
2022-11-28T14:35:00.991Z,2.43
2022-11-28T14:37:56.685Z,2.42
2022-11-28T14:41:00.326Z,2.41
2022-11-28T14:43:29.539Z,2.33
2022-11-28T14:46:36.707Z,2.29
2022-11-28T14:49:17.754Z,2.25
2022-11-28T14:52:30.769Z,2.28
2022-11-28T14:54:54.892Z,2.23
2022-11-28T14:57:28.587Z,2.25
2022-11-28T14:59:58.794Z,2.22
2022-11-28T15:02:36.281Z,2.21
2022-11-28T15:05:19.734Z,2.19
2022-11-28T15:08:00.681Z,2.23
2022-11-28T15:10:39.272Z,2.19
2022-11-28T15:13:32.504Z,2.19
2022-11-28T15:16:05.528Z,2.11
2022-11-28T15:18:34.990Z,2.20
2022-11-28T15:21:11.892Z,2.18
2022-11-28T15:23:39.481Z,2.20
2022-11-28T15:26:17.505Z,2.18
2022-11-28T15:28:45.082Z,2.18
2022-11-28T15:31:21.898Z,2.18
2022-11-28T15:33:50.791Z,2.19
2022-11-28T15:36:27.236Z,2.21
2022-11-28T15:38:56.933Z,2.21
2022-11-28T15:41:27.340Z,2.15
2022-11-28T15:43:56.694Z,2.18
2022-11-28T15:46:30.716Z,2.16
2022-11-28T15:48:58.536Z,2.18
2022-11-28T15:51:30.718Z,2.17
2022-11-28T15:53:58.471Z,2.20
2022-11-28T15:56:26.668Z,2.21
2022-11-28T15:58:54.887Z,2.21
2022-11-28T16:01:24.141Z,2.25
2022-11-28T16:03:56.661Z,2.27
2022-11-28T16:06:26.882Z,2.27
2022-11-28T16:08:58.678Z,2.26
2022-11-28T16:11:27.326Z,2.29
2022-11-28T16:13:57.756Z,2.28
2022-11-28T16:16:28.655Z,2.31
2022-11-28T16:18:58.149Z,2.31
2022-11-28T20:59:18.186Z,4.92
